sensor_id;sensor_type;location;lat;lon;timestamp;P1;durP1;ratioP1;P2;durP2;ratioP2
6527;SDS011;64597;42.664;23.256;2023-07-13T00:01:11;4.90;;;4.45;;
6527;SDS011;64597;42.664;23.256;2023-07-13T00:03:38;4.97;;;3.55;;
6527;SDS011;64597;42.664;23.256;2023-07-13T00:06:06;3.80;;;2.80;;
6527;SDS011;64597;42.664;23.256;2023-07-13T00:08:32;4.95;;;3.15;;
6527;SDS011;64597;42.664;23.256;2023-07-13T00:10:59;4.68;;;3.13;;
6527;SDS011;64597;42.664;23.256;2023-07-13T00:13:26;4.55;;;3.67;;
6527;SDS011;64597;42.664;23.256;2023-07-13T00:15:51;3.72;;;2.50;;
6527;SDS011;64597;42.664;23.256;2023-07-13T00:18:19;4.10;;;3.28;;
6527;SDS011;64597;42.664;23.256;2023-07-13T00:20:45;4.35;;;2.80;;
6527;SDS011;64597;42.664;23.256;2023-07-13T00:23:10;5.47;;;3.17;;
6527;SDS011;64597;42.664;23.256;2023-07-13T00:25:36;3.92;;;3.28;;
6527;SDS011;64597;42.664;23.256;2023-07-13T00:28:01;5.28;;;3.80;;
6527;SDS011;64597;42.664;23.256;2023-07-13T00:30:27;7.78;;;3.90;;
6527;SDS011;64597;42.664;23.256;2023-07-13T00:32:53;5.05;;;3.78;;
6527;SDS011;64597;42.664;23.256;2023-07-13T00:35:18;5.05;;;3.80;;
6527;SDS011;64597;42.664;23.256;2023-07-13T00:37:44;5.03;;;3.03;;
6527;SDS011;64597;42.664;23.256;2023-07-13T00:40:10;5.38;;;3.58;;
6527;SDS011;64597;42.664;23.256;2023-07-13T00:47:55;4.75;;;3.42;;
6527;SDS011;64597;42.664;23.256;2023-07-13T00:50:22;4.80;;;3.95;;
6527;SDS011;64597;42.664;23.256;2023-07-13T00:52:49;4.95;;;3.65;;
6527;SDS011;64597;42.664;23.256;2023-07-13T00:55:18;5.90;;;3.65;;
6527;SDS011;64597;42.664;23.256;2023-07-13T00:57:46;5.65;;;3.63;;
6527;SDS011;64597;42.664;23.256;2023-07-13T01:00:11;4.15;;;3.53;;
6527;SDS011;64597;42.664;23.256;2023-07-13T01:02:38;7.88;;;4.20;;
6527;SDS011;64597;42.664;23.256;2023-07-13T01:05:11;5.40;;;3.67;;
6527;SDS011;64597;42.664;23.256;2023-07-13T01:07:39;5.50;;;4.47;;
6527;SDS011;64597;42.664;23.256;2023-07-13T01:10:05;11.73;;;5.45;;
6527;SDS011;64597;42.664;23.256;2023-07-13T01:12:31;9.73;;;4.35;;
6527;SDS011;64597;42.664;23.256;2023-07-13T01:14:57;12.68;;;5.43;;
6527;SDS011;64597;42.664;23.256;2023-07-13T01:19:51;6.53;;;3.70;;
6527;SDS011;64597;42.664;23.256;2023-07-13T01:22:17;7.32;;;4.03;;
6527;SDS011;64597;42.664;23.256;2023-07-13T01:24:44;6.55;;;4.18;;
6527;SDS011;64597;42.664;23.256;2023-07-13T01:29:40;5.85;;;3.65;;
6527;SDS011;64597;42.664;23.256;2023-07-13T01:32:10;5.80;;;3.58;;
6527;SDS011;64597;42.664;23.256;2023-07-13T01:34:38;6.10;;;4.40;;
6527;SDS011;64597;42.664;23.256;2023-07-13T01:37:08;5.00;;;3.45;;
6527;SDS011;64597;42.664;23.256;2023-07-13T01:39:34;4.93;;;3.97;;
6527;SDS011;64597;42.664;23.256;2023-07-13T01:42:00;6.05;;;4.35;;
6527;SDS011;64597;42.664;23.256;2023-07-13T01:44:26;5.53;;;3.85;;
6527;SDS011;64597;42.664;23.256;2023-07-13T01:46:51;5.57;;;4.07;;
6527;SDS011;64597;42.664;23.256;2023-07-13T01:49:17;4.28;;;3.78;;
6527;SDS011;64597;42.664;23.256;2023-07-13T01:51:43;4.03;;;3.50;;
6527;SDS011;64597;42.664;23.256;2023-07-13T01:54:08;6.50;;;3.90;;
6527;SDS011;64597;42.664;23.256;2023-07-13T01:56:34;5.00;;;4.32;;
6527;SDS011;64597;42.664;23.256;2023-07-13T01:58:59;8.73;;;3.80;;
6527;SDS011;64597;42.664;23.256;2023-07-13T02:01:24;4.85;;;3.60;;
6527;SDS011;64597;42.664;23.256;2023-07-13T02:03:50;6.97;;;4.47;;
6527;SDS011;64597;42.664;23.256;2023-07-13T02:06:16;7.25;;;4.22;;
6527;SDS011;64597;42.664;23.256;2023-07-13T02:08:42;5.30;;;4.07;;
6527;SDS011;64597;42.664;23.256;2023-07-13T02:11:07;4.50;;;4.07;;
6527;SDS011;64597;42.664;23.256;2023-07-13T02:13:33;6.38;;;4.50;;
6527;SDS011;64597;42.664;23.256;2023-07-13T02:15:59;4.55;;;3.88;;
6527;SDS011;64597;42.664;23.256;2023-07-13T02:18:25;6.47;;;4.30;;
6527;SDS011;64597;42.664;23.256;2023-07-13T02:20:50;5.97;;;4.43;;
6527;SDS011;64597;42.664;23.256;2023-07-13T02:23:16;6.13;;;4.20;;
6527;SDS011;64597;42.664;23.256;2023-07-13T02:25:41;5.88;;;4.60;;
6527;SDS011;64597;42.664;23.256;2023-07-13T02:28:07;5.43;;;4.38;;
6527;SDS011;64597;42.664;23.256;2023-07-13T02:30:33;6.97;;;4.30;;
6527;SDS011;64597;42.664;23.256;2023-07-13T02:32:59;6.35;;;3.70;;
6527;SDS011;64597;42.664;23.256;2023-07-13T02:35:25;7.28;;;4.50;;
6527;SDS011;64597;42.664;23.256;2023-07-13T02:37:51;4.80;;;3.92;;
6527;SDS011;64597;42.664;23.256;2023-07-13T02:40:16;6.65;;;3.78;;
6527;SDS011;64597;42.664;23.256;2023-07-13T02:42:42;5.72;;;4.22;;
6527;SDS011;64597;42.664;23.256;2023-07-13T02:45:08;6.90;;;4.47;;
6527;SDS011;64597;42.664;23.256;2023-07-13T02:47:35;10.60;;;4.35;;
6527;SDS011;64597;42.664;23.256;2023-07-13T02:50:01;5.15;;;4.20;;
6527;SDS011;64597;42.664;23.256;2023-07-13T02:52:27;5.55;;;4.30;;
6527;SDS011;64597;42.664;23.256;2023-07-13T02:54:53;7.18;;;4.50;;
6527;SDS011;64597;42.664;23.256;2023-07-13T02:57:18;7.45;;;4.47;;
6527;SDS011;64597;42.664;23.256;2023-07-13T02:59:43;6.53;;;5.03;;
6527;SDS011;64597;42.664;23.256;2023-07-13T03:02:09;7.40;;;4.60;;
6527;SDS011;64597;42.664;23.256;2023-07-13T03:04:35;7.15;;;4.80;;
6527;SDS011;64597;42.664;23.256;2023-07-13T03:07:01;8.30;;;5.07;;
6527;SDS011;64597;42.664;23.256;2023-07-13T03:09:28;8.35;;;5.60;;
6527;SDS011;64597;42.664;23.256;2023-07-13T03:11:54;8.25;;;4.70;;
6527;SDS011;64597;42.664;23.256;2023-07-13T03:14:22;6.55;;;4.57;;
6527;SDS011;64597;42.664;23.256;2023-07-13T03:16:48;8.50;;;5.10;;
6527;SDS011;64597;42.664;23.256;2023-07-13T03:19:14;7.97;;;4.72;;
6527;SDS011;64597;42.664;23.256;2023-07-13T03:21:40;9.73;;;5.65;;
6527;SDS011;64597;42.664;23.256;2023-07-13T03:24:06;8.95;;;6.15;;
6527;SDS011;64597;42.664;23.256;2023-07-13T03:26:31;8.60;;;5.60;;
6527;SDS011;64597;42.664;23.256;2023-07-13T03:28:57;8.00;;;4.72;;
6527;SDS011;64597;42.664;23.256;2023-07-13T03:31:24;7.47;;;5.80;;
6527;SDS011;64597;42.664;23.256;2023-07-13T03:33:53;7.85;;;4.95;;
6527;SDS011;64597;42.664;23.256;2023-07-13T03:36:20;6.97;;;5.05;;
6527;SDS011;64597;42.664;23.256;2023-07-13T03:38:51;5.60;;;4.47;;
6527;SDS011;64597;42.664;23.256;2023-07-13T03:41:18;7.68;;;5.20;;
6527;SDS011;64597;42.664;23.256;2023-07-13T03:43:44;9.48;;;5.53;;
6527;SDS011;64597;42.664;23.256;2023-07-13T03:46:10;7.85;;;4.85;;
6527;SDS011;64597;42.664;23.256;2023-07-13T03:48:35;7.68;;;5.22;;
6527;SDS011;64597;42.664;23.256;2023-07-13T03:51:01;13.15;;;7.13;;
6527;SDS011;64597;42.664;23.256;2023-07-13T03:53:26;12.18;;;6.10;;
6527;SDS011;64597;42.664;23.256;2023-07-13T03:55:52;7.28;;;4.88;;
6527;SDS011;64597;42.664;23.256;2023-07-13T04:00:59;10.00;;;5.47;;
6527;SDS011;64597;42.664;23.256;2023-07-13T04:03:27;12.80;;;5.50;;
6527;SDS011;64597;42.664;23.256;2023-07-13T04:05:55;10.63;;;5.93;;
6527;SDS011;64597;42.664;23.256;2023-07-13T04:08:28;8.80;;;6.70;;
6527;SDS011;64597;42.664;23.256;2023-07-13T04:10:58;9.98;;;5.50;;
6527;SDS011;64597;42.664;23.256;2023-07-13T04:13:25;9.75;;;5.38;;
6527;SDS011;64597;42.664;23.256;2023-07-13T04:15:51;6.47;;;5.75;;
6527;SDS011;64597;42.664;23.256;2023-07-13T04:18:17;9.40;;;6.13;;
6527;SDS011;64597;42.664;23.256;2023-07-13T04:20:43;13.10;;;6.03;;
6527;SDS011;64597;42.664;23.256;2023-07-13T04:23:08;7.40;;;5.47;;
6527;SDS011;64597;42.664;23.256;2023-07-13T04:25:34;8.13;;;5.25;;
6527;SDS011;64597;42.664;23.256;2023-07-13T04:27:59;10.60;;;5.20;;
6527;SDS011;64597;42.664;23.256;2023-07-13T04:30:28;10.02;;;5.65;;
6527;SDS011;64597;42.664;23.256;2023-07-13T04:32:54;11.95;;;6.75;;
6527;SDS011;64597;42.664;23.256;2023-07-13T04:35:19;7.82;;;6.10;;
6527;SDS011;64597;42.664;23.256;2023-07-13T04:37:46;7.03;;;6.25;;
6527;SDS011;64597;42.664;23.256;2023-07-13T04:40:15;9.52;;;7.10;;
6527;SDS011;64597;42.664;23.256;2023-07-13T04:42:41;9.30;;;6.63;;
6527;SDS011;64597;42.664;23.256;2023-07-13T04:45:06;10.27;;;6.90;;
6527;SDS011;64597;42.664;23.256;2023-07-13T04:47:32;8.93;;;7.82;;
6527;SDS011;64597;42.664;23.256;2023-07-13T04:49:58;11.02;;;6.68;;
6527;SDS011;64597;42.664;23.256;2023-07-13T04:52:24;11.13;;;6.55;;
6527;SDS011;64597;42.664;23.256;2023-07-13T04:54:49;8.68;;;7.43;;
6527;SDS011;64597;42.664;23.256;2023-07-13T04:57:15;10.82;;;7.93;;
6527;SDS011;64597;42.664;23.256;2023-07-13T04:59:41;17.00;;;8.93;;
6527;SDS011;64597;42.664;23.256;2023-07-13T05:02:06;11.00;;;7.55;;
6527;SDS011;64597;42.664;23.256;2023-07-13T05:04:32;10.95;;;7.63;;
6527;SDS011;64597;42.664;23.256;2023-07-13T05:06:59;9.63;;;7.82;;
6527;SDS011;64597;42.664;23.256;2023-07-13T05:09:25;10.50;;;8.50;;
6527;SDS011;64597;42.664;23.256;2023-07-13T05:11:50;14.27;;;8.55;;
6527;SDS011;64597;42.664;23.256;2023-07-13T05:14:15;9.15;;;7.63;;
6527;SDS011;64597;42.664;23.256;2023-07-13T05:16:41;11.05;;;8.30;;
6527;SDS011;64597;42.664;23.256;2023-07-13T05:19:08;10.57;;;8.30;;
6527;SDS011;64597;42.664;23.256;2023-07-13T05:21:33;17.05;;;9.15;;
6527;SDS011;64597;42.664;23.256;2023-07-13T05:23:59;10.93;;;7.95;;
6527;SDS011;64597;42.664;23.256;2023-07-13T05:26:24;14.73;;;8.00;;
6527;SDS011;64597;42.664;23.256;2023-07-13T05:28:50;13.45;;;8.05;;
6527;SDS011;64597;42.664;23.256;2023-07-13T05:31:15;15.45;;;9.65;;
6527;SDS011;64597;42.664;23.256;2023-07-13T05:33:41;17.33;;;9.40;;
6527;SDS011;64597;42.664;23.256;2023-07-13T05:36:06;15.15;;;9.27;;
6527;SDS011;64597;42.664;23.256;2023-07-13T05:38:32;11.32;;;9.07;;
6527;SDS011;64597;42.664;23.256;2023-07-13T05:40:58;17.27;;;9.90;;
6527;SDS011;64597;42.664;23.256;2023-07-13T05:43:24;15.55;;;8.57;;
6527;SDS011;64597;42.664;23.256;2023-07-13T05:45:51;12.00;;;8.70;;
6527;SDS011;64597;42.664;23.256;2023-07-13T05:48:21;13.15;;;7.97;;
6527;SDS011;64597;42.664;23.256;2023-07-13T05:50:46;13.70;;;9.13;;
6527;SDS011;64597;42.664;23.256;2023-07-13T05:53:12;10.88;;;8.98;;
6527;SDS011;64597;42.664;23.256;2023-07-13T05:55:44;12.93;;;8.77;;
6527;SDS011;64597;42.664;23.256;2023-07-13T05:58:18;11.98;;;9.18;;
6527;SDS011;64597;42.664;23.256;2023-07-13T06:00:44;17.05;;;9.10;;
6527;SDS011;64597;42.664;23.256;2023-07-13T06:03:10;12.95;;;9.13;;
6527;SDS011;64597;42.664;23.256;2023-07-13T06:05:36;10.00;;;7.97;;
6527;SDS011;64597;42.664;23.256;2023-07-13T06:08:03;16.85;;;8.82;;
6527;SDS011;64597;42.664;23.256;2023-07-13T06:10:28;12.98;;;7.57;;
6527;SDS011;64597;42.664;23.256;2023-07-13T06:12:57;15.18;;;7.60;;
6527;SDS011;64597;42.664;23.256;2023-07-13T06:15:22;10.60;;;7.53;;
6527;SDS011;64597;42.664;23.256;2023-07-13T06:17:48;12.45;;;9.23;;
6527;SDS011;64597;42.664;23.256;2023-07-13T06:20:13;12.38;;;7.60;;
6527;SDS011;64597;42.664;23.256;2023-07-13T06:22:39;13.48;;;8.82;;
6527;SDS011;64597;42.664;23.256;2023-07-13T06:25:04;13.43;;;8.95;;
6527;SDS011;64597;42.664;23.256;2023-07-13T06:27:30;14.00;;;9.00;;
6527;SDS011;64597;42.664;23.256;2023-07-13T06:29:56;27.67;;;11.60;;
6527;SDS011;64597;42.664;23.256;2023-07-13T06:32:21;14.50;;;9.82;;
6527;SDS011;64597;42.664;23.256;2023-07-13T06:34:47;10.70;;;7.28;;
6527;SDS011;64597;42.664;23.256;2023-07-13T06:37:12;12.05;;;7.60;;
6527;SDS011;64597;42.664;23.256;2023-07-13T06:39:37;14.13;;;10.05;;
6527;SDS011;64597;42.664;23.256;2023-07-13T06:42:03;13.80;;;9.93;;
6527;SDS011;64597;42.664;23.256;2023-07-13T06:44:29;19.48;;;10.18;;
6527;SDS011;64597;42.664;23.256;2023-07-13T06:46:55;17.13;;;10.02;;
6527;SDS011;64597;42.664;23.256;2023-07-13T06:49:20;14.13;;;10.05;;
6527;SDS011;64597;42.664;23.256;2023-07-13T06:51:46;19.10;;;10.57;;
6527;SDS011;64597;42.664;23.256;2023-07-13T06:54:11;13.23;;;9.80;;
6527;SDS011;64597;42.664;23.256;2023-07-13T06:56:38;12.63;;;9.23;;
6527;SDS011;64597;42.664;23.256;2023-07-13T06:59:03;13.48;;;9.00;;
6527;SDS011;64597;42.664;23.256;2023-07-13T07:01:28;11.82;;;7.60;;
6527;SDS011;64597;42.664;23.256;2023-07-13T07:03:54;10.07;;;9.07;;
6527;SDS011;64597;42.664;23.256;2023-07-13T07:06:20;10.85;;;8.38;;
6527;SDS011;64597;42.664;23.256;2023-07-13T07:08:48;9.23;;;7.60;;
6527;SDS011;64597;42.664;23.256;2023-07-13T07:11:18;14.52;;;8.73;;
6527;SDS011;64597;42.664;23.256;2023-07-13T07:16:13;20.23;;;12.18;;
6527;SDS011;64597;42.664;23.256;2023-07-13T07:18:39;12.77;;;9.50;;
6527;SDS011;64597;42.664;23.256;2023-07-13T07:21:05;16.40;;;10.10;;
6527;SDS011;64597;42.664;23.256;2023-07-13T07:23:30;11.50;;;8.27;;
6527;SDS011;64597;42.664;23.256;2023-07-13T07:25:56;10.10;;;8.40;;
6527;SDS011;64597;42.664;23.256;2023-07-13T07:28:21;15.05;;;9.80;;
6527;SDS011;64597;42.664;23.256;2023-07-13T07:30:47;9.70;;;7.90;;
6527;SDS011;64597;42.664;23.256;2023-07-13T07:33:14;13.88;;;10.35;;
6527;SDS011;64597;42.664;23.256;2023-07-13T07:35:41;19.52;;;9.52;;
6527;SDS011;64597;42.664;23.256;2023-07-13T07:38:07;11.20;;;8.35;;
6527;SDS011;64597;42.664;23.256;2023-07-13T07:40:36;10.32;;;8.95;;
6527;SDS011;64597;42.664;23.256;2023-07-13T07:43:05;12.45;;;9.07;;
6527;SDS011;64597;42.664;23.256;2023-07-13T07:45:32;10.77;;;8.13;;
6527;SDS011;64597;42.664;23.256;2023-07-13T07:47:57;13.90;;;8.30;;
6527;SDS011;64597;42.664;23.256;2023-07-13T07:50:24;11.52;;;8.50;;
6527;SDS011;64597;42.664;23.256;2023-07-13T07:52:53;11.07;;;7.90;;
6527;SDS011;64597;42.664;23.256;2023-07-13T07:55:21;12.68;;;8.52;;
6527;SDS011;64597;42.664;23.256;2023-07-13T07:57:47;9.93;;;9.00;;
6527;SDS011;64597;42.664;23.256;2023-07-13T08:00:13;10.02;;;8.90;;
6527;SDS011;64597;42.664;23.256;2023-07-13T08:02:40;11.43;;;9.35;;
6527;SDS011;64597;42.664;23.256;2023-07-13T08:05:06;13.75;;;9.48;;
6527;SDS011;64597;42.664;23.256;2023-07-13T08:07:33;10.02;;;8.15;;
6527;SDS011;64597;42.664;23.256;2023-07-13T08:09:58;13.23;;;8.80;;
6527;SDS011;64597;42.664;23.256;2023-07-13T08:12:24;11.63;;;7.80;;
6527;SDS011;64597;42.664;23.256;2023-07-13T08:14:50;15.43;;;8.27;;
6527;SDS011;64597;42.664;23.256;2023-07-13T08:17:21;13.73;;;9.13;;
6527;SDS011;64597;42.664;23.256;2023-07-13T08:19:48;10.88;;;7.55;;
6527;SDS011;64597;42.664;23.256;2023-07-13T08:22:13;10.73;;;8.82;;
6527;SDS011;64597;42.664;23.256;2023-07-13T08:24:39;9.45;;;8.00;;
6527;SDS011;64597;42.664;23.256;2023-07-13T08:27:04;12.40;;;8.73;;
6527;SDS011;64597;42.664;23.256;2023-07-13T08:29:30;14.55;;;9.50;;
6527;SDS011;64597;42.664;23.256;2023-07-13T08:31:58;8.60;;;7.75;;
6527;SDS011;64597;42.664;23.256;2023-07-13T08:34:24;9.95;;;8.32;;
6527;SDS011;64597;42.664;23.256;2023-07-13T08:36:49;12.13;;;8.40;;
6527;SDS011;64597;42.664;23.256;2023-07-13T08:39:15;11.27;;;8.38;;
6527;SDS011;64597;42.664;23.256;2023-07-13T08:41:40;12.05;;;8.30;;
6527;SDS011;64597;42.664;23.256;2023-07-13T08:44:07;12.20;;;8.55;;
6527;SDS011;64597;42.664;23.256;2023-07-13T08:46:59;13.02;;;8.45;;
6527;SDS011;64597;42.664;23.256;2023-07-13T08:49:26;12.35;;;7.85;;
6527;SDS011;64597;42.664;23.256;2023-07-13T08:54:37;12.48;;;8.18;;
6527;SDS011;64597;42.664;23.256;2023-07-13T08:57:16;9.60;;;8.38;;
6527;SDS011;64597;42.664;23.256;2023-07-13T08:59:44;10.68;;;7.97;;
6527;SDS011;64597;42.664;23.256;2023-07-13T09:02:34;10.38;;;7.05;;
6527;SDS011;64597;42.664;23.256;2023-07-13T09:10:41;13.25;;;9.60;;
6527;SDS011;64597;42.664;23.256;2023-07-13T09:15:46;9.60;;;7.68;;
6527;SDS011;64597;42.664;23.256;2023-07-13T09:18:47;9.98;;;7.72;;
6527;SDS011;64597;42.664;23.256;2023-07-13T09:21:13;9.20;;;8.27;;
6527;SDS011;64597;42.664;23.256;2023-07-13T09:23:41;11.80;;;7.25;;
6527;SDS011;64597;42.664;23.256;2023-07-13T09:28:43;9.57;;;8.63;;
6527;SDS011;64597;42.664;23.256;2023-07-13T09:31:14;12.48;;;9.18;;
6527;SDS011;64597;42.664;23.256;2023-07-13T09:33:43;11.95;;;8.05;;
6527;SDS011;64597;42.664;23.256;2023-07-13T09:36:19;9.95;;;7.85;;
6527;SDS011;64597;42.664;23.256;2023-07-13T09:38:58;9.02;;;6.75;;
6527;SDS011;64597;42.664;23.256;2023-07-13T09:41:49;5.78;;;4.55;;
6527;SDS011;64597;42.664;23.256;2023-07-13T09:44:50;5.30;;;4.47;;
6527;SDS011;64597;42.664;23.256;2023-07-13T09:47:22;5.45;;;4.05;;
6527;SDS011;64597;42.664;23.256;2023-07-13T09:49:56;6.25;;;4.55;;
6527;SDS011;64597;42.664;23.256;2023-07-13T09:52:27;5.38;;;4.50;;
6527;SDS011;64597;42.664;23.256;2023-07-13T09:55:23;6.22;;;4.50;;
6527;SDS011;64597;42.664;23.256;2023-07-13T09:57:48;5.05;;;4.03;;
6527;SDS011;64597;42.664;23.256;2023-07-13T10:00:33;5.07;;;3.83;;
6527;SDS011;64597;42.664;23.256;2023-07-13T10:03:21;6.07;;;4.18;;
6527;SDS011;64597;42.664;23.256;2023-07-13T10:05:48;6.28;;;4.28;;
6527;SDS011;64597;42.664;23.256;2023-07-13T10:08:21;7.57;;;4.78;;
6527;SDS011;64597;42.664;23.256;2023-07-13T10:10:57;9.63;;;4.43;;
6527;SDS011;64597;42.664;23.256;2023-07-13T10:16:01;9.25;;;4.88;;
6527;SDS011;64597;42.664;23.256;2023-07-13T10:18:38;6.18;;;4.95;;
6527;SDS011;64597;42.664;23.256;2023-07-13T10:26:09;7.10;;;4.75;;
6527;SDS011;64597;42.664;23.256;2023-07-13T10:28:41;6.85;;;5.03;;
6527;SDS011;64597;42.664;23.256;2023-07-13T10:31:12;5.97;;;5.30;;
6527;SDS011;64597;42.664;23.256;2023-07-13T10:33:39;5.53;;;4.80;;
6527;SDS011;64597;42.664;23.256;2023-07-13T10:36:13;6.40;;;4.45;;
6527;SDS011;64597;42.664;23.256;2023-07-13T10:38:59;7.18;;;4.72;;
6527;SDS011;64597;42.664;23.256;2023-07-13T10:41:29;8.07;;;5.30;;
6527;SDS011;64597;42.664;23.256;2023-07-13T10:43:58;8.18;;;5.57;;
6527;SDS011;64597;42.664;23.256;2023-07-13T10:46:26;6.65;;;4.25;;
6527;SDS011;64597;42.664;23.256;2023-07-13T10:49:01;7.25;;;5.20;;
6527;SDS011;64597;42.664;23.256;2023-07-13T10:51:29;7.03;;;4.65;;
6527;SDS011;64597;42.664;23.256;2023-07-13T10:56:41;5.45;;;4.65;;
6527;SDS011;64597;42.664;23.256;2023-07-13T11:04:29;5.68;;;5.18;;
6527;SDS011;64597;42.664;23.256;2023-07-13T11:07:10;5.30;;;4.18;;
6527;SDS011;64597;42.664;23.256;2023-07-13T11:09:46;5.90;;;4.63;;
6527;SDS011;64597;42.664;23.256;2023-07-13T11:15:26;5.18;;;4.50;;
6527;SDS011;64597;42.664;23.256;2023-07-13T11:17:38;5.68;;;4.40;;
6527;SDS011;64597;42.664;23.256;2023-07-13T11:22:43;7.20;;;4.93;;
6527;SDS011;64597;42.664;23.256;2023-07-13T11:25:29;5.85;;;4.72;;
6527;SDS011;64597;42.664;23.256;2023-07-13T11:28:06;9.77;;;4.70;;
6527;SDS011;64597;42.664;23.256;2023-07-13T11:30:35;8.52;;;5.00;;
6527;SDS011;64597;42.664;23.256;2023-07-13T11:38:37;5.68;;;4.93;;
6527;SDS011;64597;42.664;23.256;2023-07-13T11:41:15;4.40;;;4.00;;
6527;SDS011;64597;42.664;23.256;2023-07-13T11:43:42;7.03;;;4.20;;
6527;SDS011;64597;42.664;23.256;2023-07-13T11:46:14;8.32;;;4.43;;
6527;SDS011;64597;42.664;23.256;2023-07-13T11:48:44;6.85;;;4.80;;
6527;SDS011;64597;42.664;23.256;2023-07-13T11:51:14;7.43;;;5.05;;
6527;SDS011;64597;42.664;23.256;2023-07-13T11:53:47;7.72;;;4.53;;
6527;SDS011;64597;42.664;23.256;2023-07-13T11:56:15;8.38;;;5.20;;
6527;SDS011;64597;42.664;23.256;2023-07-13T11:58:40;5.65;;;4.57;;
6527;SDS011;64597;42.664;23.256;2023-07-13T12:01:10;7.93;;;5.10;;
6527;SDS011;64597;42.664;23.256;2023-07-13T12:03:43;4.88;;;3.53;;
6527;SDS011;64597;42.664;23.256;2023-07-13T12:06:25;6.05;;;4.50;;
6527;SDS011;64597;42.664;23.256;2023-07-13T12:08:55;5.43;;;4.10;;
6527;SDS011;64597;42.664;23.256;2023-07-13T12:11:22;6.05;;;4.32;;
6527;SDS011;64597;42.664;23.256;2023-07-13T12:13:48;6.63;;;4.00;;
6527;SDS011;64597;42.664;23.256;2023-07-13T12:19:28;9.00;;;4.78;;
6527;SDS011;64597;42.664;23.256;2023-07-13T12:21:58;5.32;;;4.15;;
6527;SDS011;64597;42.664;23.256;2023-07-13T12:24:24;10.57;;;4.60;;
6527;SDS011;64597;42.664;23.256;2023-07-13T12:27:00;6.78;;;4.65;;
6527;SDS011;64597;42.664;23.256;2023-07-13T12:29:27;5.38;;;4.38;;
6527;SDS011;64597;42.664;23.256;2023-07-13T12:31:53;8.18;;;4.07;;
6527;SDS011;64597;42.664;23.256;2023-07-13T12:34:22;7.18;;;4.40;;
6527;SDS011;64597;42.664;23.256;2023-07-13T12:39:25;8.75;;;4.70;;
6527;SDS011;64597;42.664;23.256;2023-07-13T12:42:28;6.80;;;4.68;;
6527;SDS011;64597;42.664;23.256;2023-07-13T12:44:58;6.57;;;3.67;;
6527;SDS011;64597;42.664;23.256;2023-07-13T12:47:27;7.57;;;4.00;;
6527;SDS011;64597;42.664;23.256;2023-07-13T12:49:54;5.07;;;4.57;;
6527;SDS011;64597;42.664;23.256;2023-07-13T12:52:33;7.32;;;4.10;;
6527;SDS011;64597;42.664;23.256;2023-07-13T12:58:06;10.60;;;4.72;;
6527;SDS011;64597;42.664;23.256;2023-07-13T13:00:38;8.75;;;4.78;;
6527;SDS011;64597;42.664;23.256;2023-07-13T13:03:07;8.00;;;4.28;;
6527;SDS011;64597;42.664;23.256;2023-07-13T13:05:46;6.47;;;4.70;;
6527;SDS011;64597;42.664;23.256;2023-07-13T13:08:12;12.20;;;4.68;;
6527;SDS011;64597;42.664;23.256;2023-07-13T13:10:38;6.10;;;4.15;;
6527;SDS011;64597;42.664;23.256;2023-07-13T13:13:04;6.95;;;4.22;;
6527;SDS011;64597;42.664;23.256;2023-07-13T13:15:33;9.82;;;5.05;;
6527;SDS011;64597;42.664;23.256;2023-07-13T13:17:59;7.70;;;3.72;;
6527;SDS011;64597;42.664;23.256;2023-07-13T13:20:24;8.43;;;4.35;;
6527;SDS011;64597;42.664;23.256;2023-07-13T13:22:53;7.55;;;4.47;;
6527;SDS011;64597;42.664;23.256;2023-07-13T13:25:20;7.22;;;4.43;;
6527;SDS011;64597;42.664;23.256;2023-07-13T13:27:47;6.80;;;4.22;;
6527;SDS011;64597;42.664;23.256;2023-07-13T13:30:15;5.25;;;3.80;;
6527;SDS011;64597;42.664;23.256;2023-07-13T13:32:46;9.15;;;4.53;;
6527;SDS011;64597;42.664;23.256;2023-07-13T13:35:13;4.78;;;4.38;;
6527;SDS011;64597;42.664;23.256;2023-07-13T13:37:40;8.27;;;4.68;;
6527;SDS011;64597;42.664;23.256;2023-07-13T13:40:20;5.30;;;4.13;;
6527;SDS011;64597;42.664;23.256;2023-07-13T13:42:48;7.70;;;4.25;;
6527;SDS011;64597;42.664;23.256;2023-07-13T13:45:13;5.38;;;4.38;;
6527;SDS011;64597;42.664;23.256;2023-07-13T13:47:41;8.88;;;4.50;;
6527;SDS011;64597;42.664;23.256;2023-07-13T13:50:13;8.20;;;4.80;;
6527;SDS011;64597;42.664;23.256;2023-07-13T13:52:41;9.18;;;5.10;;
6527;SDS011;64597;42.664;23.256;2023-07-13T13:55:14;7.65;;;4.35;;
6527;SDS011;64597;42.664;23.256;2023-07-13T13:57:47;7.95;;;4.70;;
6527;SDS011;64597;42.664;23.256;2023-07-13T14:00:13;6.45;;;4.18;;
6527;SDS011;64597;42.664;23.256;2023-07-13T14:02:40;6.55;;;5.05;;
6527;SDS011;64597;42.664;23.256;2023-07-13T14:05:12;9.10;;;4.75;;
6527;SDS011;64597;42.664;23.256;2023-07-13T14:07:38;8.60;;;4.35;;
6527;SDS011;64597;42.664;23.256;2023-07-13T14:10:08;6.28;;;4.70;;
6527;SDS011;64597;42.664;23.256;2023-07-13T14:12:37;7.05;;;4.05;;
6527;SDS011;64597;42.664;23.256;2023-07-13T14:15:03;8.30;;;4.55;;
6527;SDS011;64597;42.664;23.256;2023-07-13T14:17:29;7.40;;;4.55;;
6527;SDS011;64597;42.664;23.256;2023-07-13T14:19:55;7.80;;;4.68;;
6527;SDS011;64597;42.664;23.256;2023-07-13T14:22:25;6.95;;;4.22;;
6527;SDS011;64597;42.664;23.256;2023-07-13T14:24:52;6.35;;;4.32;;
6527;SDS011;64597;42.664;23.256;2023-07-13T14:29:44;6.28;;;4.57;;
6527;SDS011;64597;42.664;23.256;2023-07-13T14:32:10;9.05;;;4.38;;
6527;SDS011;64597;42.664;23.256;2023-07-13T14:34:36;7.95;;;4.70;;
6527;SDS011;64597;42.664;23.256;2023-07-13T14:37:02;11.27;;;4.72;;
6527;SDS011;64597;42.664;23.256;2023-07-13T14:39:29;9.73;;;4.93;;
6527;SDS011;64597;42.664;23.256;2023-07-13T14:41:55;6.57;;;4.82;;
6527;SDS011;64597;42.664;23.256;2023-07-13T14:44:24;7.65;;;4.28;;
6527;SDS011;64597;42.664;23.256;2023-07-13T14:46:53;7.40;;;4.60;;
6527;SDS011;64597;42.664;23.256;2023-07-13T14:49:30;11.82;;;4.22;;
6527;SDS011;64597;42.664;23.256;2023-07-13T14:54:58;6.07;;;4.05;;
6527;SDS011;64597;42.664;23.256;2023-07-13T14:57:23;6.47;;;4.95;;
6527;SDS011;64597;42.664;23.256;2023-07-13T14:59:49;5.82;;;4.38;;
6527;SDS011;64597;42.664;23.256;2023-07-13T15:04:41;12.20;;;4.97;;
6527;SDS011;64597;42.664;23.256;2023-07-13T15:07:07;6.20;;;4.40;;
6527;SDS011;64597;42.664;23.256;2023-07-13T15:09:35;10.13;;;4.70;;
6527;SDS011;64597;42.664;23.256;2023-07-13T15:12:01;9.30;;;4.82;;
6527;SDS011;64597;42.664;23.256;2023-07-13T15:14:26;7.22;;;4.13;;
6527;SDS011;64597;42.664;23.256;2023-07-13T15:16:54;7.53;;;4.93;;
6527;SDS011;64597;42.664;23.256;2023-07-13T15:19:21;6.43;;;3.90;;
6527;SDS011;64597;42.664;23.256;2023-07-13T15:21:49;6.95;;;4.53;;
6527;SDS011;64597;42.664;23.256;2023-07-13T15:26:42;6.85;;;4.38;;
6527;SDS011;64597;42.664;23.256;2023-07-13T15:29:13;8.95;;;5.05;;
6527;SDS011;64597;42.664;23.256;2023-07-13T15:31:40;8.65;;;5.10;;
6527;SDS011;64597;42.664;23.256;2023-07-13T15:34:12;6.18;;;4.55;;
6527;SDS011;64597;42.664;23.256;2023-07-13T15:36:40;7.35;;;4.97;;
6527;SDS011;64597;42.664;23.256;2023-07-13T15:39:06;7.88;;;4.80;;
6527;SDS011;64597;42.664;23.256;2023-07-13T15:41:32;6.53;;;4.28;;
6527;SDS011;64597;42.664;23.256;2023-07-13T15:43:59;9.18;;;4.80;;
6527;SDS011;64597;42.664;23.256;2023-07-13T15:46:30;8.30;;;6.45;;
6527;SDS011;64597;42.664;23.256;2023-07-13T15:48:55;6.57;;;5.03;;
6527;SDS011;64597;42.664;23.256;2023-07-13T15:51:25;8.40;;;4.65;;
6527;SDS011;64597;42.664;23.256;2023-07-13T15:53:59;9.95;;;4.82;;
6527;SDS011;64597;42.664;23.256;2023-07-13T15:56:34;5.82;;;4.10;;
6527;SDS011;64597;42.664;23.256;2023-07-13T15:59:02;6.10;;;4.78;;
6527;SDS011;64597;42.664;23.256;2023-07-13T16:01:28;7.22;;;5.30;;
6527;SDS011;64597;42.664;23.256;2023-07-13T16:03:55;7.10;;;4.43;;